DLH9PZ EDDF-LIMC
Flight info
| Callsign | DLH9PZ |
|---|---|
| Flight time | 0h 55m |
| Altitude | 33000 |
| Route | ANEKI2L ANEKI Y163 NATOR DCT DITON DCT BASGO Z424 RIXUV |
| Aircraft | A321/M-SDE3FGHIRWY/LB1 |
Departure
| Time | 2026-05-05 04:39 |
|---|---|
| Airport | Frankfurt Main Airport (EDDF) |
Arrival
| Time | 2026-05-05 05:34 |
|---|---|
| Airport | Milan Malpensa International Airport (LIMC) |
| Time | Latitude | Longitude | Altitude | Speed | Heading |
|---|---|---|---|---|---|
| 2026-05-05 04:02 | 50.04418 | 8.56275 | 358 ft | 0 kts | 162° |
| 2026-05-05 04:28 | 50.04440 | 8.56263 | 361 ft | 4 kts | 162° |
| 2026-05-05 04:28 | 50.04463 | 8.56253 | 360 ft | 3 kts | 167° |
| 2026-05-05 04:28 | 50.04484 | 8.56252 | 358 ft | 4 kts | 225° |
| 2026-05-05 04:28 | 50.04494 | 8.56286 | 363 ft | 4 kts | 253° |
| 2026-05-05 04:29 | 50.04502 | 8.56323 | 361 ft | 4 kts | 249° |
| 2026-05-05 04:29 | 50.04511 | 8.56362 | 362 ft | 4 kts | 250° |
| 2026-05-05 04:29 | 50.04515 | 8.56379 | 360 ft | 0 kts | 250° |
| 2026-05-05 04:31 | 50.04515 | 8.56378 | 360 ft | 0 kts | 250° |
| 2026-05-05 04:31 | 50.04509 | 8.56351 | 361 ft | 7 kts | 250° |
| 2026-05-05 04:31 | 50.04488 | 8.56262 | 363 ft | 10 kts | 250° |
| 2026-05-05 04:32 | 50.04463 | 8.56157 | 359 ft | 11 kts | 250° |
| 2026-05-05 04:32 | 50.04430 | 8.56048 | 359 ft | 11 kts | 228° |
| 2026-05-05 04:32 | 50.04366 | 8.56042 | 363 ft | 11 kts | 160° |
| 2026-05-05 04:32 | 50.04295 | 8.56113 | 359 ft | 13 kts | 114° |
| 2026-05-05 04:33 | 50.04253 | 8.56230 | 362 ft | 14 kts | 154° |
| 2026-05-05 04:33 | 50.04160 | 8.56279 | 358 ft | 14 kts | 173° |
| 2026-05-05 04:33 | 50.04101 | 8.56168 | 358 ft | 15 kts | 250° |
| 2026-05-05 04:33 | 50.04056 | 8.55980 | 352 ft | 21 kts | 250° |
| 2026-05-05 04:34 | 50.04005 | 8.55762 | 356 ft | 22 kts | 249° |
| 2026-05-05 04:34 | 50.03949 | 8.55535 | 351 ft | 23 kts | 249° |
| 2026-05-05 04:34 | 50.03894 | 8.55302 | 356 ft | 23 kts | 249° |
| 2026-05-05 04:34 | 50.03836 | 8.55064 | 358 ft | 24 kts | 249° |
| 2026-05-05 04:35 | 50.03776 | 8.54815 | 351 ft | 25 kts | 249° |
| 2026-05-05 04:35 | 50.03715 | 8.54554 | 347 ft | 27 kts | 250° |
| 2026-05-05 04:35 | 50.03648 | 8.54275 | 347 ft | 28 kts | 249° |
| 2026-05-05 04:35 | 50.03587 | 8.54020 | 336 ft | 21 kts | 250° |
| 2026-05-05 04:36 | 50.03553 | 8.53875 | 338 ft | 22 kts | 250° |
| 2026-05-05 04:36 | 50.03479 | 8.53567 | 338 ft | 23 kts | 249° |
| 2026-05-05 04:36 | 50.03441 | 8.53408 | 337 ft | 24 kts | 249° |
| 2026-05-05 04:36 | 50.03362 | 8.53076 | 332 ft | 25 kts | 250° |
| 2026-05-05 04:37 | 50.03311 | 8.52867 | 331 ft | 10 kts | 249° |
| 2026-05-05 04:37 | 50.03283 | 8.52750 | 331 ft | 13 kts | 250° |
| 2026-05-05 04:37 | 50.03258 | 8.52670 | 331 ft | 10 kts | 234° |
| 2026-05-05 04:37 | 50.03214 | 8.52610 | 333 ft | 9 kts | 208° |
| 2026-05-05 04:38 | 50.03085 | 8.52596 | 335 ft | 40 kts | 180° |
| 2026-05-05 04:38 | 50.02560 | 8.52602 | 334 ft | 109 kts | 180° |
| 2026-05-05 04:38 | 50.01596 | 8.52612 | 332 ft | 165 kts | 179° |
| 2026-05-05 04:38 | 50.00387 | 8.52595 | 814 ft | 172 kts | 181° |
| 2026-05-05 04:39 | 49.99190 | 8.52544 | 1526 ft | 173 kts | 181° |
| 2026-05-05 04:39 | 49.97916 | 8.52504 | 1862 ft | 193 kts | 181° |
| 2026-05-05 04:39 | 49.96497 | 8.52462 | 2073 ft | 215 kts | 181° |
| 2026-05-05 04:39 | 49.94945 | 8.52423 | 2247 ft | 237 kts | 180° |
| 2026-05-05 04:40 | 49.93242 | 8.52386 | 2700 ft | 247 kts | 180° |
| 2026-05-05 04:40 | 49.91471 | 8.52360 | 3214 ft | 259 kts | 180° |
| 2026-05-05 04:40 | 49.89687 | 8.52345 | 3941 ft | 261 kts | 180° |
| 2026-05-05 04:40 | 49.87845 | 8.52348 | 4744 ft | 262 kts | 180° |
| 2026-05-05 04:41 | 49.86044 | 8.52345 | 5462 ft | 263 kts | 182° |
| 2026-05-05 04:41 | 49.84211 | 8.52240 | 6213 ft | 265 kts | 184° |
| 2026-05-05 04:41 | 49.82367 | 8.52081 | 6909 ft | 266 kts | 185° |
| 2026-05-05 04:41 | 49.80508 | 8.51906 | 7570 ft | 269 kts | 185° |
| 2026-05-05 04:42 | 49.78631 | 8.51730 | 8238 ft | 272 kts | 185° |
| 2026-05-05 04:42 | 49.76730 | 8.51558 | 8902 ft | 275 kts | 185° |
| 2026-05-05 04:42 | 49.74809 | 8.51392 | 9567 ft | 278 kts | 185° |
| 2026-05-05 04:42 | 49.72863 | 8.51226 | 10121 ft | 285 kts | 185° |
| 2026-05-05 04:43 | 49.70803 | 8.51051 | 10252 ft | 307 kts | 185° |
| 2026-05-05 04:43 | 49.68605 | 8.50867 | 10377 ft | 326 kts | 185° |
| 2026-05-05 04:43 | 49.66271 | 8.50672 | 10519 ft | 344 kts | 184° |
| 2026-05-05 04:43 | 49.63854 | 8.50473 | 10915 ft | 351 kts | 184° |
| 2026-05-05 04:44 | 49.61397 | 8.50278 | 11437 ft | 355 kts | 184° |
| 2026-05-05 04:44 | 49.58917 | 8.50083 | 11987 ft | 359 kts | 184° |
| 2026-05-05 04:44 | 49.56413 | 8.49883 | 12544 ft | 362 kts | 184° |
| 2026-05-05 04:44 | 49.53888 | 8.49682 | 13095 ft | 365 kts | 184° |
| 2026-05-05 04:45 | 49.51343 | 8.49478 | 13643 ft | 368 kts | 184° |
| 2026-05-05 04:45 | 49.48778 | 8.49269 | 14128 ft | 371 kts | 185° |
| 2026-05-05 04:45 | 49.46193 | 8.49056 | 14644 ft | 373 kts | 185° |
| 2026-05-05 04:45 | 49.43599 | 8.48841 | 15166 ft | 374 kts | 185° |
| 2026-05-05 04:46 | 49.40992 | 8.48628 | 15689 ft | 376 kts | 185° |
| 2026-05-05 04:46 | 49.38368 | 8.48414 | 16210 ft | 378 kts | 185° |
| 2026-05-05 04:46 | 49.35748 | 8.48201 | 16714 ft | 380 kts | 185° |
| 2026-05-05 04:46 | 49.33103 | 8.47991 | 17194 ft | 382 kts | 185° |
| 2026-05-05 04:47 | 49.30443 | 8.47785 | 17664 ft | 384 kts | 185° |
| 2026-05-05 04:47 | 49.27770 | 8.47572 | 18127 ft | 386 kts | 185° |
| 2026-05-05 04:47 | 49.25089 | 8.47287 | 18534 ft | 387 kts | 186° |
| 2026-05-05 04:47 | 49.22397 | 8.46935 | 18930 ft | 389 kts | 187° |
| 2026-05-05 04:48 | 49.19695 | 8.46550 | 19308 ft | 391 kts | 187° |
| 2026-05-05 04:48 | 49.16976 | 8.46158 | 19688 ft | 393 kts | 187° |
| 2026-05-05 04:48 | 49.14245 | 8.45777 | 20085 ft | 395 kts | 187° |
| 2026-05-05 04:48 | 49.11500 | 8.45409 | 20487 ft | 397 kts | 187° |
| 2026-05-05 04:49 | 49.08742 | 8.45052 | 20891 ft | 399 kts | 187° |
| 2026-05-05 04:49 | 49.05984 | 8.44595 | 21277 ft | 399 kts | 192° |
| 2026-05-05 04:49 | 49.03268 | 8.43678 | 21676 ft | 400 kts | 195° |
| 2026-05-05 04:49 | 49.00550 | 8.42728 | 22059 ft | 402 kts | 195° |
| 2026-05-05 04:50 | 48.97821 | 8.41774 | 22440 ft | 404 kts | 194° |
| 2026-05-05 04:50 | 48.95076 | 8.40814 | 22815 ft | 405 kts | 194° |
| 2026-05-05 04:50 | 48.92321 | 8.39852 | 23183 ft | 407 kts | 194° |
| 2026-05-05 04:50 | 48.89552 | 8.38890 | 23545 ft | 409 kts | 194° |
| 2026-05-05 04:51 | 48.86771 | 8.37928 | 23858 ft | 411 kts | 194° |
| 2026-05-05 04:51 | 48.83979 | 8.36964 | 24172 ft | 412 kts | 194° |
| 2026-05-05 04:51 | 48.81175 | 8.35998 | 24491 ft | 414 kts | 194° |
| 2026-05-05 04:51 | 48.78363 | 8.35029 | 24807 ft | 415 kts | 195° |
| 2026-05-05 04:52 | 48.75542 | 8.34032 | 25103 ft | 417 kts | 195° |
| 2026-05-05 04:52 | 48.72715 | 8.33004 | 25398 ft | 419 kts | 195° |
| 2026-05-05 04:52 | 48.69880 | 8.31959 | 25689 ft | 420 kts | 195° |
| 2026-05-05 04:52 | 48.67033 | 8.30907 | 25991 ft | 422 kts | 195° |
| 2026-05-05 04:53 | 48.64180 | 8.29853 | 26300 ft | 423 kts | 195° |
| 2026-05-05 04:53 | 48.61315 | 8.28803 | 26602 ft | 424 kts | 195° |
| 2026-05-05 04:53 | 48.58478 | 8.27770 | 26888 ft | 426 kts | 195° |
| 2026-05-05 04:53 | 48.55594 | 8.26722 | 27166 ft | 427 kts | 195° |
| 2026-05-05 04:54 | 48.52700 | 8.25671 | 27448 ft | 428 kts | 195° |
| 2026-05-05 04:54 | 48.49750 | 8.24959 | 27698 ft | 432 kts | 186° |
| 2026-05-05 04:54 | 48.46734 | 8.24978 | 27937 ft | 436 kts | 177° |
| 2026-05-05 04:54 | 48.43719 | 8.25650 | 28167 ft | 439 kts | 174° |
| 2026-05-05 04:55 | 48.40702 | 8.26401 | 28387 ft | 440 kts | 174° |
| 2026-05-05 04:55 | 48.37681 | 8.27140 | 28716 ft | 439 kts | 174° |
| 2026-05-05 04:55 | 48.34672 | 8.27868 | 29048 ft | 437 kts | 174° |
| 2026-05-05 04:55 | 48.31674 | 8.28590 | 29392 ft | 435 kts | 174° |
| 2026-05-05 04:56 | 48.28694 | 8.29306 | 29734 ft | 433 kts | 174° |
| 2026-05-05 04:56 | 48.25720 | 8.30026 | 30043 ft | 432 kts | 174° |
| 2026-05-05 04:56 | 48.22757 | 8.30742 | 30301 ft | 431 kts | 174° |
| 2026-05-05 04:56 | 48.19804 | 8.31455 | 30568 ft | 430 kts | 174° |
| 2026-05-05 04:57 | 48.16849 | 8.32072 | 30825 ft | 426 kts | 179° |
| 2026-05-05 04:57 | 48.13899 | 8.32178 | 31081 ft | 424 kts | 183° |
| 2026-05-05 04:57 | 48.10956 | 8.32208 | 31355 ft | 422 kts | 182° |
| 2026-05-05 04:57 | 48.08026 | 8.32246 | 31658 ft | 420 kts | 182° |
| 2026-05-05 04:58 | 48.05108 | 8.32288 | 31937 ft | 419 kts | 183° |
| 2026-05-05 04:58 | 48.02198 | 8.32333 | 32217 ft | 417 kts | 183° |
| 2026-05-05 04:58 | 47.99299 | 8.32375 | 32502 ft | 416 kts | 183° |
| 2026-05-05 04:58 | 47.96404 | 8.32415 | 32765 ft | 415 kts | 183° |
| 2026-05-05 04:59 | 47.93520 | 8.32453 | 32907 ft | 414 kts | 183° |
| 2026-05-05 04:59 | 47.87792 | 8.32536 | 32929 ft | 410 kts | 183° |
| 2026-05-05 05:00 | 47.82086 | 8.32618 | 32927 ft | 410 kts | 183° |
| 2026-05-05 05:00 | 47.76382 | 8.32694 | 32931 ft | 410 kts | 183° |
| 2026-05-05 05:01 | 47.70681 | 8.32773 | 32923 ft | 410 kts | 183° |
| 2026-05-05 05:01 | 47.64966 | 8.32846 | 32925 ft | 412 kts | 183° |
| 2026-05-05 05:02 | 47.59269 | 8.32929 | 32930 ft | 413 kts | 182° |
| 2026-05-05 05:02 | 47.53522 | 8.33015 | 32940 ft | 413 kts | 182° |
| 2026-05-05 05:03 | 47.47774 | 8.33088 | 32946 ft | 413 kts | 182° |
| 2026-05-05 05:03 | 47.42021 | 8.33166 | 32947 ft | 413 kts | 182° |
| 2026-05-05 05:04 | 47.36279 | 8.33254 | 32934 ft | 414 kts | 182° |
| 2026-05-05 05:04 | 47.30520 | 8.33335 | 32941 ft | 414 kts | 182° |
| 2026-05-05 05:05 | 47.24743 | 8.33843 | 32953 ft | 416 kts | 178° |
| 2026-05-05 05:05 | 47.18986 | 8.34760 | 32961 ft | 416 kts | 177° |
| 2026-05-05 05:06 | 47.13230 | 8.35673 | 32959 ft | 415 kts | 178° |
| 2026-05-05 05:06 | 47.07481 | 8.36483 | 32939 ft | 415 kts | 178° |
| 2026-05-05 05:07 | 47.01737 | 8.37247 | 32971 ft | 414 kts | 178° |
| 2026-05-05 05:07 | 46.95998 | 8.38013 | 32972 ft | 414 kts | 178° |
| 2026-05-05 05:08 | 46.90263 | 8.38788 | 32968 ft | 413 kts | 178° |
| 2026-05-05 05:08 | 46.87397 | 8.39172 | 32866 ft | 413 kts | 178° |
| 2026-05-05 05:08 | 46.84540 | 8.39556 | 32592 ft | 412 kts | 178° |
| 2026-05-05 05:08 | 46.81682 | 8.39943 | 32323 ft | 413 kts | 178° |
| 2026-05-05 05:09 | 46.78819 | 8.40330 | 31944 ft | 413 kts | 178° |
| 2026-05-05 05:09 | 46.75958 | 8.40714 | 31175 ft | 414 kts | 178° |
| 2026-05-05 05:09 | 46.73085 | 8.41097 | 30384 ft | 416 kts | 177° |
| 2026-05-05 05:09 | 46.70196 | 8.41485 | 29503 ft | 418 kts | 177° |
| 2026-05-05 05:10 | 46.67338 | 8.41870 | 28673 ft | 418 kts | 177° |
| 2026-05-05 05:10 | 46.64449 | 8.42260 | 28028 ft | 414 kts | 177° |
| 2026-05-05 05:10 | 46.61608 | 8.42646 | 27521 ft | 406 kts | 177° |
| 2026-05-05 05:10 | 46.58812 | 8.43026 | 26995 ft | 401 kts | 177° |
| 2026-05-05 05:11 | 46.56052 | 8.43398 | 26458 ft | 396 kts | 177° |
| 2026-05-05 05:11 | 46.53324 | 8.43763 | 25942 ft | 391 kts | 177° |
| 2026-05-05 05:11 | 46.50629 | 8.44122 | 25418 ft | 387 kts | 177° |
| 2026-05-05 05:11 | 46.47956 | 8.44478 | 24916 ft | 385 kts | 177° |
| 2026-05-05 05:12 | 46.45299 | 8.44830 | 24394 ft | 382 kts | 177° |
| 2026-05-05 05:12 | 46.42656 | 8.45178 | 23893 ft | 380 kts | 177° |
| 2026-05-05 05:12 | 46.40029 | 8.45524 | 23353 ft | 378 kts | 177° |
| 2026-05-05 05:12 | 46.37414 | 8.45869 | 22844 ft | 377 kts | 177° |
| 2026-05-05 05:13 | 46.34811 | 8.46214 | 22339 ft | 375 kts | 177° |
| 2026-05-05 05:13 | 46.32223 | 8.46557 | 21867 ft | 372 kts | 177° |
| 2026-05-05 05:13 | 46.29654 | 8.46900 | 21380 ft | 369 kts | 177° |
| 2026-05-05 05:13 | 46.27103 | 8.47241 | 20888 ft | 367 kts | 176° |
| 2026-05-05 05:14 | 46.24575 | 8.47587 | 20401 ft | 364 kts | 176° |
| 2026-05-05 05:14 | 46.22069 | 8.47944 | 19928 ft | 360 kts | 176° |
| 2026-05-05 05:14 | 46.19583 | 8.48305 | 19452 ft | 358 kts | 175° |
| 2026-05-05 05:14 | 46.17112 | 8.48670 | 19002 ft | 356 kts | 175° |
| 2026-05-05 05:15 | 46.14657 | 8.49028 | 18534 ft | 353 kts | 175° |
| 2026-05-05 05:15 | 46.12222 | 8.49392 | 18044 ft | 350 kts | 173° |
| 2026-05-05 05:15 | 46.09853 | 8.50171 | 17572 ft | 349 kts | 163° |
| 2026-05-05 05:15 | 46.07582 | 8.51385 | 17098 ft | 346 kts | 161° |
| 2026-05-05 05:16 | 46.05338 | 8.52603 | 16635 ft | 343 kts | 161° |
| 2026-05-05 05:16 | 46.03117 | 8.53800 | 16172 ft | 339 kts | 161° |
| 2026-05-05 05:16 | 46.00952 | 8.54961 | 16011 ft | 324 kts | 161° |
| 2026-05-05 05:16 | 45.98878 | 8.56073 | 15883 ft | 311 kts | 161° |
| 2026-05-05 05:17 | 45.96891 | 8.57139 | 15694 ft | 300 kts | 161° |
| 2026-05-05 05:17 | 45.94951 | 8.58178 | 15376 ft | 295 kts | 161° |
| 2026-05-05 05:17 | 45.93046 | 8.59197 | 15132 ft | 290 kts | 161° |
| 2026-05-05 05:17 | 45.91162 | 8.60205 | 14886 ft | 289 kts | 160° |
| 2026-05-05 05:18 | 45.89385 | 8.61452 | 14641 ft | 288 kts | 148° |
| 2026-05-05 05:18 | 45.87800 | 8.63212 | 14409 ft | 288 kts | 143° |
| 2026-05-05 05:18 | 45.86250 | 8.65021 | 14173 ft | 286 kts | 143° |
| 2026-05-05 05:18 | 45.84706 | 8.66814 | 13936 ft | 285 kts | 143° |
| 2026-05-05 05:19 | 45.83169 | 8.68598 | 13641 ft | 284 kts | 143° |
| 2026-05-05 05:19 | 45.81634 | 8.70378 | 13276 ft | 284 kts | 143° |
| 2026-05-05 05:19 | 45.80100 | 8.72158 | 12891 ft | 283 kts | 143° |
| 2026-05-05 05:19 | 45.78573 | 8.73928 | 12512 ft | 282 kts | 143° |
| 2026-05-05 05:20 | 45.77051 | 8.75687 | 12135 ft | 280 kts | 143° |
| 2026-05-05 05:20 | 45.75425 | 8.77173 | 11872 ft | 274 kts | 153° |
| 2026-05-05 05:20 | 45.73732 | 8.78455 | 11801 ft | 277 kts | 153° |
| 2026-05-05 05:20 | 45.72032 | 8.79761 | 11699 ft | 277 kts | 153° |
| 2026-05-05 05:21 | 45.70334 | 8.81072 | 11582 ft | 277 kts | 152° |
| 2026-05-05 05:21 | 45.68640 | 8.82381 | 11430 ft | 277 kts | 152° |
| 2026-05-05 05:21 | 45.66948 | 8.83686 | 11326 ft | 276 kts | 152° |
| 2026-05-05 05:21 | 45.65270 | 8.84979 | 11214 ft | 270 kts | 152° |
| 2026-05-05 05:22 | 45.63653 | 8.86223 | 11069 ft | 259 kts | 152° |
| 2026-05-05 05:22 | 45.62076 | 8.87396 | 10832 ft | 252 kts | 158° |
| 2026-05-05 05:22 | 45.60408 | 8.88065 | 10616 ft | 249 kts | 169° |
| 2026-05-05 05:22 | 45.58706 | 8.88522 | 10414 ft | 249 kts | 169° |
| 2026-05-05 05:23 | 45.57008 | 8.88983 | 10189 ft | 248 kts | 169° |
| 2026-05-05 05:23 | 45.55316 | 8.89442 | 9894 ft | 247 kts | 168° |
| 2026-05-05 05:23 | 45.53653 | 8.89897 | 9616 ft | 239 kts | 168° |
| 2026-05-05 05:23 | 45.52024 | 8.90341 | 9192 ft | 237 kts | 168° |
| 2026-05-05 05:24 | 45.50405 | 8.90780 | 8792 ft | 236 kts | 168° |
| 2026-05-05 05:24 | 45.48801 | 8.91214 | 8381 ft | 234 kts | 168° |
| 2026-05-05 05:24 | 45.47203 | 8.91648 | 7971 ft | 233 kts | 168° |
| 2026-05-05 05:24 | 45.46148 | 8.91934 | 7703 ft | 233 kts | 167° |
| 2026-05-05 05:25 | 45.44049 | 8.92502 | 7175 ft | 231 kts | 167° |
| 2026-05-05 05:25 | 45.42480 | 8.92926 | 6800 ft | 229 kts | 167° |
| 2026-05-05 05:25 | 45.40917 | 8.93351 | 6430 ft | 227 kts | 167° |
| 2026-05-05 05:25 | 45.39372 | 8.93770 | 6121 ft | 225 kts | 167° |
| 2026-05-05 05:26 | 45.37832 | 8.94186 | 5804 ft | 225 kts | 167° |
| 2026-05-05 05:26 | 45.36792 | 8.94468 | 5599 ft | 225 kts | 167° |
| 2026-05-05 05:26 | 45.35255 | 8.94879 | 5333 ft | 225 kts | 168° |
| 2026-05-05 05:26 | 45.33688 | 8.94756 | 5078 ft | 231 kts | 194° |
| 2026-05-05 05:27 | 45.32317 | 8.93536 | 4828 ft | 240 kts | 224° |
| 2026-05-05 05:27 | 45.31560 | 8.91415 | 4576 ft | 247 kts | 258° |
| 2026-05-05 05:27 | 45.32610 | 8.87064 | 4116 ft | 241 kts | 313° |
| 2026-05-05 05:28 | 45.33698 | 8.85300 | 4042 ft | 230 kts | 313° |
| 2026-05-05 05:28 | 45.34694 | 8.83668 | 4058 ft | 208 kts | 313° |
| 2026-05-05 05:28 | 45.35614 | 8.82159 | 4073 ft | 200 kts | 313° |
| 2026-05-05 05:28 | 45.36606 | 8.80807 | 4062 ft | 196 kts | 327° |
| 2026-05-05 05:29 | 45.37813 | 8.79936 | 4062 ft | 194 kts | 345° |
| 2026-05-05 05:29 | 45.39127 | 8.79760 | 4069 ft | 190 kts | 3° |
| 2026-05-05 05:29 | 45.40446 | 8.79541 | 4062 ft | 192 kts | 353° |
| 2026-05-05 05:29 | 45.41758 | 8.79197 | 4058 ft | 191 kts | 352° |
| 2026-05-05 05:30 | 45.43064 | 8.78841 | 4060 ft | 191 kts | 352° |
| 2026-05-05 05:30 | 45.44368 | 8.78483 | 4031 ft | 191 kts | 351° |
| 2026-05-05 05:30 | 45.45676 | 8.78125 | 3880 ft | 191 kts | 351° |
| 2026-05-05 05:30 | 45.46975 | 8.77768 | 3652 ft | 189 kts | 351° |
| 2026-05-05 05:31 | 45.48258 | 8.77416 | 3412 ft | 187 kts | 351° |
| 2026-05-05 05:31 | 45.49526 | 8.77067 | 3167 ft | 185 kts | 350° |
| 2026-05-05 05:31 | 45.50782 | 8.76722 | 2918 ft | 183 kts | 350° |
| 2026-05-05 05:31 | 45.52027 | 8.76380 | 2673 ft | 181 kts | 350° |
| 2026-05-05 05:32 | 45.53262 | 8.76040 | 2431 ft | 181 kts | 350° |
| 2026-05-05 05:32 | 45.54486 | 8.75704 | 2185 ft | 174 kts | 349° |
| 2026-05-05 05:32 | 45.55594 | 8.75399 | 1954 ft | 155 kts | 349° |
| 2026-05-05 05:32 | 45.56625 | 8.75115 | 1759 ft | 148 kts | 348° |
| 2026-05-05 05:33 | 45.57623 | 8.74840 | 1544 ft | 145 kts | 348° |
| 2026-05-05 05:33 | 45.58612 | 8.74567 | 1348 ft | 144 kts | 348° |
| 2026-05-05 05:33 | 45.59594 | 8.74296 | 1145 ft | 144 kts | 348° |
| 2026-05-05 05:33 | 45.60574 | 8.74026 | 949 ft | 143 kts | 348° |
| 2026-05-05 05:34 | 45.61550 | 8.73757 | 766 ft | 143 kts | 348° |
| 2026-05-05 05:34 | 45.62437 | 8.73511 | 741 ft | 110 kts | 349° |
| 2026-05-05 05:34 | 45.62956 | 8.73365 | 738 ft | 41 kts | 347° |
| 2026-05-05 05:34 | 45.63178 | 8.73221 | 739 ft | 30 kts | 316° |
| 2026-05-05 05:35 | 45.63292 | 8.73003 | 741 ft | 26 kts | 303° |
| 2026-05-05 05:35 | 45.63366 | 8.72838 | 741 ft | 12 kts | 304° |
| 2026-05-05 05:35 | 45.63404 | 8.72739 | 739 ft | 11 kts | 286° |
| 2026-05-05 05:35 | 45.63404 | 8.72616 | 739 ft | 14 kts | 259° |
| 2026-05-05 05:36 | 45.63385 | 8.72477 | 741 ft | 15 kts | 259° |
| 2026-05-05 05:36 | 45.63367 | 8.72331 | 741 ft | 14 kts | 259° |
| 2026-05-05 05:36 | 45.63348 | 8.72194 | 742 ft | 14 kts | 258° |
| 2026-05-05 05:36 | 45.63329 | 8.72059 | 741 ft | 14 kts | 259° |
| 2026-05-05 05:37 | 45.63280 | 8.71973 | 741 ft | 11 kts | 188° |
| 2026-05-05 05:37 | 45.63197 | 8.71990 | 741 ft | 12 kts | 168° |
| 2026-05-05 05:37 | 45.63110 | 8.72014 | 741 ft | 13 kts | 169° |
| 2026-05-05 05:37 | 45.63020 | 8.72019 | 741 ft | 13 kts | 206° |
| 2026-05-05 05:38 | 45.62985 | 8.71902 | 740 ft | 14 kts | 259° |
| 2026-05-05 05:38 | 45.62967 | 8.71767 | 741 ft | 14 kts | 259° |
| 2026-05-05 05:38 | 45.62948 | 8.71624 | 741 ft | 15 kts | 259° |
| 2026-05-05 05:38 | 45.62939 | 8.71507 | 741 ft | 9 kts | 295° |
| 2026-05-05 05:39 | 45.62994 | 8.71477 | 741 ft | 6 kts | 348° |
| 2026-05-05 05:39 | 45.63012 | 8.71472 | 740 ft | 0 kts | 348° |